createdAt,value
2023-05-07T00:00:08.798Z,2.50
2023-05-07T00:05:17.815Z,2.40
2023-05-07T00:10:26.312Z,2.30
2023-05-07T00:15:35.039Z,2.30
2023-05-07T00:20:43.781Z,2.30
2023-05-07T00:25:52.562Z,2.20
2023-05-07T00:31:01.028Z,2.10
2023-05-07T00:36:09.890Z,2.10
2023-05-07T00:41:18.633Z,2.00
2023-05-07T00:46:27.503Z,1.90
2023-05-07T00:51:35.983Z,1.90
2023-05-07T00:56:45.139Z,1.80
2023-05-07T01:01:53.823Z,1.70
2023-05-07T01:07:02.763Z,1.60
2023-05-07T01:12:10.757Z,1.60
2023-05-07T01:17:19.638Z,1.50
2023-05-07T01:22:27.805Z,1.50
2023-05-07T01:27:36.452Z,1.40
2023-05-07T01:32:44.802Z,1.30
2023-05-07T01:37:54.000Z,1.20
2023-05-07T01:43:02.720Z,1.20
2023-05-07T01:48:11.573Z,1.20
2023-05-07T01:53:20.168Z,1.10
2023-05-07T01:58:29.078Z,1.10
2023-05-07T02:03:37.784Z,1.10
2023-05-07T02:08:46.473Z,1.00
2023-05-07T02:13:58.084Z,0.90
2023-05-07T02:18:56.818Z,0.90
2023-05-07T02:24:05.623Z,0.90
2023-05-07T02:29:15.265Z,0.90
2023-05-07T02:34:23.688Z,0.90
2023-05-07T02:39:32.547Z,1.00
2023-05-07T02:44:41.047Z,1.00
2023-05-07T02:49:49.965Z,1.10
2023-05-07T02:54:58.553Z,1.20
2023-05-07T03:00:07.274Z,1.30
2023-05-07T03:05:15.766Z,1.30
2023-05-07T03:10:24.960Z,1.40
2023-05-07T03:15:36.629Z,1.60
2023-05-07T03:20:35.357Z,1.70
2023-05-07T03:25:44.029Z,1.90
2023-05-07T03:30:52.784Z,2.00
2023-05-07T03:36:01.603Z,2.30
2023-05-07T03:41:11.356Z,2.50
2023-05-07T03:46:20.033Z,2.70
2023-05-07T03:51:28.343Z,3.00
2023-05-07T03:56:37.399Z,3.30
2023-05-07T04:01:46.938Z,3.50
2023-05-07T04:06:55.500Z,3.80
2023-05-07T04:12:04.283Z,4.10
2023-05-07T04:17:13.156Z,4.30
2023-05-07T04:22:22.028Z,4.60
2023-05-07T04:27:30.242Z,4.90
2023-05-07T04:32:40.368Z,5.10
2023-05-07T04:37:38.566Z,5.40
2023-05-07T04:42:47.267Z,5.70
2023-05-07T04:47:55.848Z,5.90
2023-05-07T04:53:05.428Z,6.20
2023-05-07T04:58:13.877Z,6.50
2023-05-07T05:03:23.311Z,6.80
2023-05-07T05:08:31.520Z,7.10
2023-05-07T05:13:40.880Z,7.50
2023-05-07T05:18:49.205Z,8.00
2023-05-07T05:23:58.948Z,8.30
2023-05-07T05:29:07.789Z,8.60
2023-05-07T05:34:16.928Z,8.80
2023-05-07T05:39:25.526Z,9.10
2023-05-07T05:44:34.327Z,9.20
2023-05-07T05:49:43.078Z,9.50
2023-05-07T05:54:52.157Z,9.80
2023-05-07T06:00:00.956Z,9.90
2023-05-07T06:05:09.602Z,9.90
2023-05-07T06:10:17.938Z,10.10
2023-05-07T06:15:27.303Z,10.30
2023-05-07T06:20:36.082Z,10.50
2023-05-07T06:25:45.156Z,10.50
2023-05-07T06:30:53.828Z,10.70
2023-05-07T06:36:02.926Z,11.00
2023-05-07T06:41:11.348Z,11.30
2023-05-07T06:46:19.905Z,11.30
2023-05-07T06:51:28.730Z,11.50
2023-05-07T06:56:40.470Z,11.70
2023-05-07T07:01:38.724Z,11.90
2023-05-07T07:06:47.740Z,12.30
2023-05-07T07:11:56.579Z,12.60
2023-05-07T07:17:05.444Z,13.00
2023-05-07T07:22:13.944Z,13.20
2023-05-07T07:27:23.284Z,13.10
2023-05-07T07:32:31.946Z,12.90
2023-05-07T07:37:40.386Z,12.70
2023-05-07T07:42:49.268Z,12.60
2023-05-07T07:47:58.634Z,12.20
2023-05-07T07:53:07.265Z,12.00
2023-05-07T07:58:16.175Z,12.40
2023-05-07T08:03:24.949Z,12.80
2023-05-07T08:08:33.843Z,13.00
2023-05-07T08:13:42.377Z,13.20
2023-05-07T08:18:51.046Z,12.70
2023-05-07T08:23:59.581Z,12.40
2023-05-07T08:29:08.736Z,12.10
2023-05-07T08:34:17.242Z,12.20
2023-05-07T08:39:26.216Z,12.50
2023-05-07T08:44:34.664Z,12.70
2023-05-07T08:49:43.277Z,13.30
2023-05-07T08:54:52.282Z,13.30
2023-05-07T09:00:00.894Z,13.10
2023-05-07T09:05:09.627Z,13.00
2023-05-07T09:10:18.575Z,13.00
2023-05-07T09:15:27.044Z,13.00
2023-05-07T09:20:35.800Z,13.20
2023-05-07T09:25:44.165Z,13.20
2023-05-07T09:30:53.722Z,13.50
2023-05-07T09:36:02.427Z,14.00
2023-05-07T09:41:11.585Z,14.30
2023-05-07T09:46:20.008Z,14.60
2023-05-07T09:51:29.633Z,14.80
2023-05-07T09:56:37.874Z,14.70
2023-05-07T10:01:46.981Z,14.20
2023-05-07T10:06:55.543Z,13.90
2023-05-07T10:12:04.613Z,14.10
2023-05-07T10:17:13.193Z,14.60
2023-05-07T10:22:22.811Z,14.30
2023-05-07T10:27:31.049Z,14.50
2023-05-07T10:37:47.989Z,15.10
2023-05-07T10:42:57.188Z,14.90
2023-05-07T10:48:13.827Z,15.30
2023-05-07T10:53:14.093Z,15.40
2023-05-07T10:58:31.432Z,15.30
2023-05-07T11:03:32.468Z,15.00
2023-05-07T11:08:40.655Z,14.70
2023-05-07T11:13:49.657Z,14.60
2023-05-07T11:18:58.182Z,14.50
2023-05-07T11:24:07.083Z,14.30
2023-05-07T11:29:15.511Z,13.90
2023-05-07T11:34:24.337Z,13.70
2023-05-07T11:39:32.915Z,13.60
2023-05-07T11:44:41.581Z,14.00
2023-05-07T11:49:50.618Z,14.30
2023-05-07T11:54:59.837Z,14.20
2023-05-07T12:00:08.574Z,14.00
2023-05-07T12:05:17.668Z,13.70
2023-05-07T12:10:26.187Z,13.50
2023-05-07T12:15:35.098Z,13.40
2023-05-07T12:20:43.753Z,13.90
2023-05-07T12:25:52.485Z,13.90
2023-05-07T12:31:01.286Z,14.00
2023-05-07T12:36:09.957Z,14.00
2023-05-07T12:41:18.881Z,14.20
2023-05-07T12:46:28.175Z,14.60
2023-05-07T12:51:36.483Z,14.60
2023-05-07T12:56:45.377Z,14.60
2023-05-07T13:01:53.867Z,14.20
2023-05-07T13:07:03.261Z,14.10
2023-05-07T13:12:11.582Z,14.10
2023-05-07T13:17:20.411Z,14.40
2023-05-07T13:22:28.913Z,14.60
2023-05-07T13:27:38.032Z,14.60
2023-05-07T13:32:46.516Z,14.40
2023-05-07T13:37:58.524Z,14.50
2023-05-07T13:42:56.656Z,14.50
2023-05-07T13:48:06.144Z,14.70
2023-05-07T13:53:14.745Z,14.70
2023-05-07T13:58:23.645Z,14.50
2023-05-07T14:03:32.043Z,14.40
2023-05-07T14:08:40.989Z,14.60
2023-05-07T14:13:49.222Z,14.70
2023-05-07T14:18:58.798Z,14.90
2023-05-07T14:24:06.981Z,15.00
2023-05-07T14:29:16.119Z,14.70
2023-05-07T14:34:24.455Z,14.60
2023-05-07T14:39:33.732Z,14.40
2023-05-07T14:44:42.292Z,14.40
2023-05-07T14:49:51.721Z,14.60
2023-05-07T14:55:00.415Z,14.70
2023-05-07T15:00:09.646Z,14.90
2023-05-07T15:05:18.707Z,15.00
2023-05-07T15:10:28.020Z,15.30
2023-05-07T15:15:37.375Z,16.20
2023-05-07T15:20:46.014Z,17.40
2023-05-07T15:25:54.551Z,19.20
2023-05-07T15:30:58.725Z,20.50
2023-05-07T15:36:07.989Z,20.90
2023-05-07T15:41:21.076Z,20.70
2023-05-07T15:46:19.802Z,20.20
2023-05-07T15:51:32.695Z,19.90
2023-05-07T15:56:31.357Z,20.00
2023-05-07T16:01:45.281Z,20.10
2023-05-07T16:06:41.923Z,20.20
2023-05-07T16:11:50.757Z,20.00
2023-05-07T16:17:12.296Z,19.90
2023-05-07T16:22:00.765Z,20.10
2023-05-07T16:27:08.452Z,20.20
2023-05-07T16:32:17.216Z,20.30
2023-05-07T16:37:25.617Z,20.00
2023-05-07T16:42:34.638Z,19.80
2023-05-07T16:47:43.573Z,19.60
2023-05-07T16:52:52.850Z,19.40
2023-05-07T16:58:01.798Z,19.30
2023-05-07T17:03:14.725Z,19.10
2023-05-07T17:08:14.487Z,18.70
2023-05-07T17:13:23.164Z,18.00
2023-05-07T17:18:31.788Z,17.40
2023-05-07T17:23:41.067Z,16.80
2023-05-07T17:28:49.629Z,15.80
2023-05-07T17:33:58.546Z,14.50
2023-05-07T17:39:07.486Z,13.50
2023-05-07T17:44:16.716Z,12.60
2023-05-07T17:49:25.336Z,12.00
2023-05-07T17:54:34.330Z,11.50
2023-05-07T17:59:43.162Z,10.90
2023-05-07T18:04:52.614Z,10.40
2023-05-07T18:10:01.371Z,10.00
2023-05-07T18:15:10.587Z,9.60
2023-05-07T18:20:19.214Z,9.30
2023-05-07T18:25:27.935Z,9.00
2023-05-07T18:30:36.933Z,8.70
2023-05-07T18:35:46.058Z,8.30
2023-05-07T18:40:54.468Z,8.10
2023-05-07T18:46:03.818Z,7.90
2023-05-07T18:51:12.533Z,7.70
2023-05-07T18:56:21.398Z,7.50
2023-05-07T19:01:30.615Z,7.30
2023-05-07T19:06:39.548Z,7.20
2023-05-07T19:11:48.431Z,7.00
2023-05-07T19:16:57.692Z,6.70
2023-05-07T19:22:06.444Z,6.50
2023-05-07T19:27:15.619Z,6.50
2023-05-07T19:32:24.498Z,6.40
2023-05-07T19:37:33.127Z,6.30
2023-05-07T19:42:41.881Z,6.30
2023-05-07T19:47:51.225Z,6.10
2023-05-07T19:53:00.302Z,6.00
2023-05-07T19:58:10.035Z,5.90
2023-05-07T20:03:19.694Z,5.70
2023-05-07T20:08:28.521Z,5.70
2023-05-07T20:13:36.857Z,5.60
2023-05-07T20:18:45.765Z,5.50
2023-05-07T20:23:54.541Z,5.40
2023-05-07T20:29:03.105Z,5.30
2023-05-07T20:34:11.619Z,5.10
2023-05-07T20:39:21.410Z,5.00
2023-05-07T20:44:29.776Z,4.90
2023-05-07T20:49:38.830Z,4.90
2023-05-07T20:54:47.807Z,4.70
2023-05-07T20:59:56.870Z,4.60
2023-05-07T21:05:05.703Z,4.50
2023-05-07T21:10:14.817Z,4.50
2023-05-07T21:15:23.195Z,4.60
2023-05-07T21:20:32.277Z,4.50
2023-05-07T21:25:40.784Z,4.40
2023-05-07T21:30:49.706Z,4.30
2023-05-07T21:35:58.456Z,4.20
2023-05-07T21:41:07.637Z,4.20
2023-05-07T21:46:16.379Z,4.20
2023-05-07T21:51:25.395Z,4.10
2023-05-07T21:56:33.927Z,4.00
2023-05-07T22:01:42.981Z,4.00
2023-05-07T22:06:51.880Z,3.90
2023-05-07T22:12:01.388Z,3.80
2023-05-07T22:17:10.141Z,3.80
2023-05-07T22:22:19.741Z,3.70
2023-05-07T22:27:28.165Z,3.60
2023-05-07T22:32:37.041Z,3.60
2023-05-07T22:37:45.421Z,3.60
2023-05-07T22:42:54.197Z,3.50
2023-05-07T22:48:03.038Z,3.40
2023-05-07T22:53:11.640Z,3.40
2023-05-07T22:58:20.034Z,3.30
2023-05-07T23:03:29.117Z,3.30
2023-05-07T23:08:38.148Z,3.20
2023-05-07T23:13:47.242Z,3.20
2023-05-07T23:18:55.890Z,3.10
2023-05-07T23:24:04.873Z,3.00
2023-05-07T23:29:13.226Z,2.90
2023-05-07T23:34:21.870Z,2.80
2023-05-07T23:39:30.323Z,2.80
2023-05-07T23:44:39.271Z,2.80
2023-05-07T23:49:47.666Z,2.70
2023-05-07T23:54:57.119Z,2.70
